CRQ - Mc Clellan Palomar

Pirep is a free, collaborative database of all public and private airports located within the United States. All pilots are welcome to contribute, edit, and improve any airport they have local knowledge about, no registration required.
Uploaded photos will be licensed under a CC BY-SA 4.0 license. Please only upload photos you have the rights to use.
Tags
Public
Food
Lodging
METAR / TAF
Flying Clubs
Edit Tags
Camping
Car Rental
Bicycles
Swimming
Golfing
Fishing
Hot Springs
Museum
Airpark
Upcoming Events
No upcoming events. Is anything happening here soon?
*
*
*

Where exactly on/near the airport is this event taking place?

Is there a webpage with more information for this event?

Who should be contacted for more information?

What is this event all about?

Repeat every
Description
Last updated: 2023-06-01 19:39:02 PDT
Transient Parking
Fuel Location
Landing & Tie-down Fees
Crew Car Availability
Flying Clubs
Last updated: 2024-01-10 18:27:52 PST
WiFi Access
Airport Statistics
Location: Carlsbad, CA
Elevation: 330ft
Sectional: Los Angeles
Activation date: May 1959
Fuel: 100LL, A (prices)
Runway 06/24: 4,897ft
Runway H1: 40ft
Access: Open to the public
Current Weather — MVFR
  • Weather data is strictly informational and not for flight planning purposes.
  • METAR
    2024-05-29 09:53:00 PDT
    Ceiling Wind Temperature Dewpoint Weather Visbility
    1,600ft 270° @ 5kt 60°F 53°F N/A 10SM
    Clouds: Overcast @ 1,600ft
    Raw: KCRQ 291653Z 27005KT 10SM OVC016 16/12 A3003 RMK AO2 SLP166 T01610117
  • TAF
    2024-05-29 11:00:00 PDT – 2024-05-29 18:00:00 PDT
    Ceiling Wind Weather Visbility
    Sky clear 240° @ 8kt N/A 6SM
    Clouds: Scattered @ 1,500ft
    Raw: KCRQ 291720Z 2918/3018 24008KT P6SM SCT015 FM300100 24005KT P6SM OVC011 FM300400 VRB04KT 6SM BR OVC008 FM301700 23005KT P6SM SCT010
  • TAF
    2024-05-29 18:00:00 PDT – 2024-05-29 21:00:00 PDT
    Ceiling Wind Weather Visbility
    1,100ft 240° @ 5kt N/A 6SM
    Clouds: Overcast @ 1,100ft
    Raw: KCRQ 291720Z 2918/3018 24008KT P6SM SCT015 FM300100 24005KT P6SM OVC011 FM300400 VRB04KT 6SM BR OVC008 FM301700 23005KT P6SM SCT010
  • TAF
    2024-05-29 21:00:00 PDT – 2024-05-30 10:00:00 PDT
    Ceiling Wind Weather Visbility
    800ft Variable Mist 6SM
    Clouds: Overcast @ 800ft
    Raw: KCRQ 291720Z 2918/3018 24008KT P6SM SCT015 FM300100 24005KT P6SM OVC011 FM300400 VRB04KT 6SM BR OVC008 FM301700 23005KT P6SM SCT010
  • TAF
    2024-05-30 10:00:00 PDT – 2024-05-30 11:00:00 PDT
    Ceiling Wind Weather Visbility
    Sky clear 230° @ 5kt N/A 6SM
    Clouds: Scattered @ 1,000ft
    Raw: KCRQ 291720Z 2918/3018 24008KT P6SM SCT015 FM300100 24005KT P6SM OVC011 FM300400 VRB04KT 6SM BR OVC008 FM301700 23005KT P6SM SCT010
Click/tap to add an annotation marker to the map
Airport Webcams
No webcams added yet.
Direct links to live image URLs will be displayed inline on this page. URLs to separate webpages will be linked to.
URL:
Direct links to live image URLs will be displayed inline on this page. URLs to separate webpages will be linked to.
URL:
Remarks
  • This airport has been surveyed by the national geodetic survey.
  • Closed to air carrier opns with more than 9 passenger seats fm 2230 to 0600 except by ppr call amgr 760-431-4646.
  • Arpt has noise abatement procedures contact amgr 760-431-4646.
  • Multiple apchs by large acft (including large hel) not authorized.
  • No jet acft trng due to noise abatement and tfc congestion.
Comments
Leave a comment What was your experience like at this airport?